Time;durP1;ratioP1;P1;durP2;ratioP2;P2;SDS_P1;SDS_P2;PMS_P1;PMS_P2;Temp;Humidity;BMP_temperature;BMP_pressure;BME280_temperature;BME280_humidity;BME280_pressure;Samples;Min_cycle;Max_cycle;Signal;HPM_P1;HPM_P2
2022/10/03 00:00:22;;;;;;;1.63;0.50;;;11.70;99.90;;;;;;6196358;22;20071;-95
2022/10/03 00:03:15;;;;;;;1.88;0.40;;;11.70;99.90;;;;;;6226220;22;20047;-93
2022/10/03 00:06:08;;;;;;;2.50;0.50;;;11.70;99.90;;;;;;6251720;22;20024;-95
2022/10/03 00:08:58;;;;;;;5.63;0.50;;;11.70;99.90;;;;;;6226810;22;20016;-90
2022/10/03 00:11:26;;;;;;;0.10;0.10;;;11.70;99.90;;;;;;6227204;22;20015;-95
2022/10/03 00:13:52;;;;;;;2.53;0.50;;;11.70;99.90;;;;;;6227861;22;20043;-89
2022/10/03 00:16:28;;;;;;;2.57;0.80;;;11.70;99.90;;;;;;6254693;22;20023;-96
2022/10/03 00:19:22;;;;;;;2.83;0.28;;;11.70;99.90;;;;;;6232901;22;20067;-95
2022/10/03 00:22:32;;;;;;;1.88;0.32;;;11.70;99.90;;;;;;6263668;22;20071;-93
2022/10/03 00:25:15;;;;;;;3.53;0.68;;;11.70;99.90;;;;;;6225290;22;20071;-95
2022/10/03 00:28:19;;;;;;;6.28;0.45;;;11.80;99.90;;;;;;6234726;22;20020;-95
2022/10/03 00:31:03;;;;;;;;;;;;;;;;;;;;;
2022/10/03 00:41:46;;;;;;;1.75;0.30;;;11.90;99.90;;;;;;6331963;22;20027;-91
2022/10/03 00:58:04;;;;;;;3.08;0.47;;;12.00;99.90;;;;;;6315623;22;20015;-95
2022/10/03 01:01:21;;;;;;;1.20;0.40;;;12.00;99.90;;;;;;6263282;22;20026;-93
2022/10/03 01:04:37;;;;;;;1.45;0.25;;;12.00;99.90;;;;;;6219299;22;20024;-95
2022/10/03 01:08:05;;;;;;;1.92;0.20;;;12.00;99.90;;;;;;6229734;22;20130;-95
2022/10/03 01:10:30;;;;;;;3.28;0.47;;;12.00;99.90;;;;;;6157581;23;20022;-93
2022/10/03 01:13:04;;;;;;;3.10;0.40;;;12.00;99.90;;;;;;6108621;23;20013;-95
2022/10/03 01:16:04;;;;;;;1.88;0.28;;;12.00;99.90;;;;;;6196017;22;20050;-89
2022/10/03 01:18:42;;;;;;;1.63;0.40;;;12.10;99.90;;;;;;6230043;22;20085;-95
2022/10/03 01:21:15;;;;;;;2.83;0.30;;;12.10;99.90;;;;;;6227580;22;20015;-90
2022/10/03 01:24:10;;;;;;;2.83;0.40;;;12.10;99.90;;;;;;6226215;22;20039;-94
2022/10/03 01:26:51;;;;;;;3.50;0.43;;;12.10;99.90;;;;;;6225411;22;20027;-95
2022/10/03 01:32:19;;;;;;;1.88;0.45;;;12.00;99.90;;;;;;6289880;22;20054;-94
2022/10/03 01:34:58;;;;;;;1.48;0.20;;;12.00;99.90;;;;;;6262118;22;20019;-95
2022/10/03 01:52:44;;;;;;;2.03;0.28;;;11.80;99.90;;;;;;6276754;22;20442;-94
2022/10/03 01:55:40;;;;;;;1.77;0.30;;;11.80;99.90;;;;;;6228652;22;20020;-95
2022/10/03 02:08:40;;;;;;;2.53;0.28;;;11.80;99.90;;;;;;6279634;22;20046;-91
2022/10/03 02:11:34;;;;;;;3.95;0.60;;;11.80;99.90;;;;;;6227428;22;20026;-94
2022/10/03 02:14:26;;;;;;;5.10;0.55;;;11.80;99.90;;;;;;6229496;22;20020;-94
2022/10/03 02:17:19;;;;;;;2.17;0.30;;;11.80;99.90;;;;;;6233927;22;20019;-93
2022/10/03 02:20:32;;;;;;;3.13;0.22;;;11.80;99.90;;;;;;6232630;22;20094;-96
2022/10/03 02:23:21;;;;;;;1.80;0.30;;;11.80;99.90;;;;;;6087771;23;20511;-92
2022/10/03 02:26:33;;;;;;;1.90;0.40;;;11.70;99.90;;;;;;6086783;23;20069;-90
2022/10/03 02:47:35;;;;;;;3.58;0.30;;;11.80;99.90;;;;;;6279970;22;20018;-94
2022/10/03 02:50:06;;;;;;;1.55;0.38;;;11.80;99.90;;;;;;6227356;22;20022;-95
2022/10/03 02:53:23;;;;;;;2.00;0.50;;;11.80;99.90;;;;;;6226461;22;20405;-93
2022/10/03 02:56:28;;;;;;;0.75;0.22;;;11.80;99.90;;;;;;6227535;22;20019;-94
2022/10/03 02:59:26;;;;;;;1.63;0.30;;;11.80;99.90;;;;;;6231027;22;20035;-93
2022/10/03 03:02:11;;;;;;;;;;;11.80;99.90;;;;;;6231940;22;20016;-96
2022/10/03 03:05:14;;;;;;;0.82;0.25;;;11.90;99.90;;;;;;6232460;22;19915;-96
2022/10/03 03:08:04;;;;;;;1.55;0.30;;;11.90;99.90;;;;;;6230844;22;20098;-94
2022/10/03 03:11:25;;;;;;;0.77;0.20;;;11.90;99.90;;;;;;6229176;22;20023;-94
2022/10/03 03:14:09;;;;;;;1.45;0.20;;;11.90;99.90;;;;;;6115072;23;20324;-88
2022/10/03 03:17:04;;;;;;;1.27;0.40;;;11.90;99.90;;;;;;6269348;22;20034;-91
2022/10/03 03:19:58;;;;;;;2.22;0.50;;;11.90;99.90;;;;;;6238649;22;20326;-95
2022/10/03 03:22:45;;;;;;;2.05;0.20;;;11.90;99.90;;;;;;6208698;22;20023;-96
2022/10/03 03:25:11;;;;;;;2.08;0.40;;;11.90;99.90;;;;;;6228118;22;20391;-94
2022/10/03 03:28:04;;;;;;;0.73;0.30;;;12.00;99.90;;;;;;6226442;22;20072;-96
2022/10/03 03:30:56;;;;;;;2.95;0.43;;;12.00;99.90;;;;;;6227001;22;20027;-95
2022/10/03 03:33:32;;;;;;;3.95;0.40;;;12.00;99.90;;;;;;6172987;22;20074;-93
2022/10/03 03:36:15;;;;;;;3.60;0.20;;;12.00;99.90;;;;;;6227646;22;20047;-92
2022/10/03 03:39:02;;;;;;;3.33;0.32;;;12.00;99.90;;;;;;6226674;22;20019;-90
2022/10/03 03:41:49;;;;;;;2.28;0.55;;;12.00;99.90;;;;;;6232001;22;20522;-92
2022/10/03 03:44:36;;;;;;;2.33;0.20;;;12.00;99.90;;;;;;6171916;22;20075;-95
2022/10/03 03:47:46;;;;;;;2.38;0.25;;;12.00;99.90;;;;;;6228125;22;20289;-95
2022/10/03 03:50:43;;;;;;;6.20;0.95;;;12.00;99.90;;;;;;6227597;22;20441;-95
2022/10/03 03:53:45;;;;;;;2.05;0.30;;;12.00;99.90;;;;;;6226362;22;20011;-96
2022/10/03 03:56:37;;;;;;;1.35;0.30;;;12.00;99.90;;;;;;6226027;22;20589;-94
2022/10/03 03:59:29;;;;;;;4.70;0.35;;;12.00;99.90;;;;;;6226245;22;20047;-94
2022/10/03 04:02:21;;;;;;;1.90;0.40;;;12.00;99.90;;;;;;6230237;22;20095;-94
2022/10/03 04:09:20;;;;;;;4.60;0.40;;;12.00;99.90;;;;;;6279102;22;20038;-95
2022/10/03 04:12:15;;;;;;;1.02;0.20;;;12.10;99.90;;;;;;6250455;22;20016;-94
2022/10/03 04:14:52;;;;;;;2.83;0.35;;;12.00;99.90;;;;;;6226203;22;20020;-94
2022/10/03 04:20:59;;;;;;;2.70;0.30;;;12.00;99.90;;;;;;6284894;22;20038;-95
2022/10/03 04:23:57;;;;;;;1.85;0.10;;;12.00;99.90;;;;;;6231036;22;20022;-95
2022/10/03 04:26:40;;;;;;;3.35;0.60;;;12.00;99.90;;;;;;6229006;22;20094;-92
2022/10/03 04:29:39;;;;;;;3.65;1.00;;;12.00;99.90;;;;;;6227984;22;20068;-92
2022/10/03 04:32:23;;;;;;;2.97;0.80;;;12.00;99.90;;;;;;6229274;22;20016;-95
2022/10/03 04:35:20;;;;;;;1.75;0.40;;;11.90;99.90;;;;;;6228220;22;20090;-92
2022/10/03 04:37:57;;;;;;;9.73;3.78;;;11.90;99.90;;;;;;6228993;22;20062;-93
2022/10/03 04:40:23;;;;;;;8.13;2.55;;;11.90;99.90;;;;;;6232547;22;20031;-95
2022/10/03 04:43:08;;;;;;;1.58;0.50;;;11.90;99.90;;;;;;6248968;22;20003;-93
2022/10/03 04:45:44;;;;;;;2.88;0.70;;;11.90;99.90;;;;;;6230604;22;20016;-93
2022/10/03 04:48:49;;;;;;;2.42;0.43;;;11.90;99.90;;;;;;6231394;22;20000;-96
2022/10/03 04:56:38;;;;;;;1.45;0.28;;;11.80;99.90;;;;;;6267550;22;20019;-95
2022/10/03 04:59:30;;;;;;;5.63;1.50;;;11.80;99.90;;;;;;6265925;22;20098;-96
2022/10/03 05:38:23;;;;;;;1.70;0.50;;;11.40;99.90;;;;;;6270235;22;20024;-95
2022/10/03 05:41:10;;;;;;;1.58;0.40;;;11.40;99.90;;;;;;6236545;22;20012;-95
2022/10/03 05:43:44;;;;;;;1.38;0.35;;;11.30;99.90;;;;;;6236779;22;20460;-95
2022/10/03 05:46:13;;;;;;;2.03;0.40;;;11.30;99.90;;;;;;6229023;22;20460;-95
2022/10/03 05:48:46;;;;;;;1.90;0.30;;;11.30;99.90;;;;;;6255136;22;20019;-96
2022/10/03 05:51:19;;;;;;;1.38;0.30;;;11.30;99.90;;;;;;6230202;22;20057;-96
2022/10/03 05:54:33;;;;;;;1.00;0.25;;;11.30;99.90;;;;;;6228474;22;20046;-96
2022/10/03 05:57:19;;;;;;;4.25;0.47;;;11.30;99.90;;;;;;6226278;22;20060;-95
2022/10/03 05:59:59;;;;;;;1.15;0.40;;;11.30;99.90;;;;;;6227869;22;20460;-90
2022/10/03 06:02:43;;;;;;;1.48;0.32;;;11.30;99.90;;;;;;6227241;22;20090;-89
2022/10/03 06:05:33;;;;;;;1.92;0.50;;;11.30;99.90;;;;;;6234095;22;20015;-92
2022/10/03 06:08:11;;;;;;;2.90;0.35;;;11.20;99.90;;;;;;6232565;22;20047;-96
2022/10/03 06:11:18;;;;;;;2.95;0.55;;;11.20;99.90;;;;;;6226668;22;20015;-95
2022/10/03 06:32:20;;;;;;;1.65;0.30;;;11.20;99.90;;;;;;6261848;22;20027;-95
2022/10/03 06:51:50;;;;;;;2.92;0.30;;;11.40;99.90;;;;;;6267302;22;20023;-94
2022/10/03 07:27:00;;;;;;;2.20;0.52;;;11.80;99.90;;;;;;6275443;22;20024;-95
2022/10/03 07:29:54;;;;;;;1.83;0.38;;;11.80;99.90;;;;;;6225573;22;20074;-91
2022/10/03 07:32:22;;;;;;;1.85;0.55;;;11.90;99.90;;;;;;6224359;22;20377;-92
2022/10/03 07:35:25;;;;;;;1.90;0.30;;;11.90;99.90;;;;;;6254200;22;20008;-92
2022/10/03 07:41:33;;;;;;;3.90;1.00;;;12.00;99.90;;;;;;6281757;22;20023;-91
2022/10/03 07:44:28;;;;;;;5.28;1.30;;;12.10;99.90;;;;;;6256452;22;20023;-92
2022/10/03 07:48:06;;;;;;;4.60;1.30;;;12.20;99.90;;;;;;6257896;22;20026;-93
2022/10/03 07:51:04;;;;;;;5.20;1.08;;;12.20;99.90;;;;;;6281457;22;20460;-93
2022/10/03 07:54:20;;;;;;;3.83;1.20;;;12.30;99.90;;;;;;6257003;22;20089;-93
2022/10/03 07:57:14;;;;;;;2.28;0.75;;;12.40;99.90;;;;;;6256411;22;20146;-94
2022/10/03 08:00:49;;;;;;;2.13;0.70;;;12.40;99.90;;;;;;6256426;22;20073;-90
2022/10/03 08:03:33;;;;;;;2.30;0.40;;;12.50;99.90;;;;;;6156996;22;20022;-93
2022/10/03 08:06:29;;;;;;;0.65;0.28;;;12.60;99.90;;;;;;6255959;22;20011;-94
2022/10/03 08:09:23;;;;;;;;;;;;;;;;;;;;;
2022/10/03 08:12:16;;;;;;;1.60;0.30;;;12.70;99.90;;;;;;6281422;22;20062;-92
2022/10/03 08:14:57;;;;;;;0.43;0.20;;;12.70;99.90;;;;;;6256172;22;20019;-93
2022/10/03 08:18:05;;;;;;;2.92;0.57;;;12.70;99.90;;;;;;6256244;22;20106;-91
2022/10/03 08:21:04;;;;;;;;;;;;;;;;;;;;;
2022/10/03 08:23:45;;;;;;;1.73;0.30;;;12.90;99.90;;;;;;6281196;22;20019;-93
2022/10/03 08:26:20;;;;;;;2.85;0.40;;;12.90;99.90;;;;;;6256962;22;20025;-91
2022/10/03 08:29:30;;;;;;;0.82;0.20;;;13.00;99.90;;;;;;6281483;22;20015;-91
2022/10/03 08:32:33;;;;;;;3.85;0.40;;;13.00;99.90;;;;;;6281933;22;20026;-91
2022/10/03 08:35:08;;;;;;;1.98;0.28;;;13.10;99.90;;;;;;6256744;22;20023;-93
2022/10/03 08:37:54;;;;;;;5.13;0.40;;;13.20;99.90;;;;;;6256520;22;20376;-92
2022/10/03 08:40:41;;;;;;;2.72;0.30;;;13.20;99.90;;;;;;6256434;22;20023;-91
2022/10/03 08:43:28;;;;;;;0.93;0.30;;;13.30;99.90;;;;;;6263155;22;20015;-89
2022/10/03 08:46:02;;;;;;;1.42;0.30;;;13.40;99.90;;;;;;6257225;22;20034;-92
2022/10/03 08:48:46;;;;;;;5.07;0.40;;;13.40;99.90;;;;;;6256578;22;20019;-92
2022/10/03 08:51:45;;;;;;;1.70;0.28;;;13.50;99.90;;;;;;6256698;22;20348;-92
2022/10/03 08:54:24;;;;;;;1.38;0.40;;;13.60;99.90;;;;;;6254893;22;20042;-91
2022/10/03 08:57:27;;;;;;;1.08;0.28;;;13.60;99.90;;;;;;6253468;22;20015;-91
2022/10/03 09:00:57;;;;;;;;;;;;;;;;;;;;;
2022/10/03 09:04:19;;;;;;;1.30;0.30;;;13.80;99.90;;;;;;6128121;23;20029;-92
2022/10/03 09:10:21;;;;;;;0.85;0.32;;;13.90;99.90;;;;;;6071191;23;20038;-93
2022/10/03 09:12:51;;;;;;;1.38;0.47;;;14.00;99.90;;;;;;6104464;23;20118;-91
2022/10/03 09:46:27;;;;;;;2.97;0.30;;;14.70;99.90;;;;;;6275970;22;20102;-93
2022/10/03 09:49:33;;;;;;;2.13;0.38;;;14.80;99.90;;;;;;6225229;22;20015;-93
2022/10/03 09:52:28;;;;;;;5.10;0.60;;;14.90;99.90;;;;;;6224757;22;20050;-92
2022/10/03 09:55:10;;;;;;;0.93;0.20;;;15.00;99.90;;;;;;6230746;22;20020;-93
2022/10/03 09:58:04;;;;;;;1.70;0.20;;;15.00;99.90;;;;;;6255490;22;20023;-91
2022/10/03 10:01:06;;;;;;;1.45;0.52;;;15.20;99.90;;;;;;6255739;22;20011;-92
2022/10/03 10:04:26;;;;;;;4.03;0.30;;;15.20;99.90;;;;;;6254989;22;20015;-95
2022/10/03 10:07:40;;;;;;;1.70;0.17;;;15.40;99.90;;;;;;6255128;22;20055;-92
2022/10/03 10:10:27;;;;;;;1.55;0.10;;;15.50;99.90;;;;;;6255234;22;20065;-92
2022/10/03 10:13:15;;;;;;;0.98;0.20;;;15.50;99.90;;;;;;6255000;22;20060;-91
2022/10/03 10:15:56;;;;;;;;;;;;;;;;;;;;;
2022/10/03 10:18:55;;;;;;;1.58;0.10;;;15.50;99.90;;;;;;6281399;22;20059;-93
2022/10/03 10:22:35;;;;;;;2.22;0.15;;;15.60;99.90;;;;;;6277386;22;20026;-92
2022/10/03 10:25:09;;;;;;;1.60;0.40;;;15.70;99.90;;;;;;6254964;22;20142;-92
2022/10/03 10:27:41;;;;;;;4.05;0.30;;;15.70;99.90;;;;;;6254999;22;20019;-92
2022/10/03 10:30:31;;;;;;;0.60;0.10;;;15.80;99.90;;;;;;6255306;22;20026;-93
2022/10/03 10:33:16;;;;;;;1.65;0.45;;;15.80;99.90;;;;;;6256304;22;20328;-94
2022/10/03 10:36:00;;;;;;;3.15;0.40;;;15.80;99.90;;;;;;6256054;22;20019;-94
2022/10/03 10:44:02;;;;;;;1.95;0.22;;;15.90;99.90;;;;;;6307918;22;20024;-94
2022/10/03 10:47:04;;;;;;;0.80;0.30;;;16.10;99.90;;;;;;6210659;23;20040;-93
2022/10/03 10:50:07;;;;;;;2.83;0.47;;;16.20;99.90;;;;;;6166554;23;20028;-94
2022/10/03 10:52:47;;;;;;;0.68;0.20;;;16.20;99.90;;;;;;6166676;23;20104;-92
2022/10/03 10:56:10;;;;;;;3.25;0.45;;;16.30;99.90;;;;;;6166039;23;20016;-93
2022/10/03 10:58:56;;;;;;;3.38;0.65;;;16.40;99.90;;;;;;6166518;23;20012;-94
2022/10/03 11:01:50;;;;;;;6.43;2.80;;;16.40;99.90;;;;;;6166343;23;20016;-95
2022/10/03 11:37:44;;;;;;;2.03;0.32;;;17.10;99.90;;;;;;6238102;22;20233;-93
2022/10/03 11:53:14;;;;;;;2.88;0.30;;;16.80;99.90;;;;;;6246371;22;20020;-92
2022/10/03 12:43:55;;;;;;;1.80;0.20;;;16.60;99.90;;;;;;6285149;22;20046;-93
2022/10/03 12:50:27;;;;;;;0.90;0.20;;;16.60;99.90;;;;;;6281031;22;20015;-91
2022/10/03 12:54:01;;;;;;;0.32;0.10;;;16.70;99.90;;;;;;6256080;22;20074;-92
2022/10/03 13:21:50;;;;;;;1.20;0.20;;;17.00;99.90;;;;;;6277913;22;20414;-93
2022/10/03 13:25:05;;;;;;;;;;;;;;;;;;;;;
2022/10/03 13:28:02;;;;;;;1.87;0.20;;;16.90;99.90;;;;;;6264943;22;20094;-90
2022/10/03 13:31:24;;;;;;;;;;;;;;;;;;;;;
2022/10/03 13:34:02;;;;;;;2.85;0.32;;;16.80;99.90;;;;;;6247875;22;20070;-95
2022/10/03 13:37:35;;;;;;;0.73;0.20;;;16.80;99.90;;;;;;6225320;22;20012;-93
2022/10/03 13:40:36;;;;;;;1.10;0.20;;;16.70;99.90;;;;;;6250487;22;20015;-92
2022/10/03 13:43:24;;;;;;;0.85;0.20;;;16.70;99.90;;;;;;6205931;22;20055;-96
2022/10/03 13:45:55;;;;;;;1.67;0.20;;;16.60;99.90;;;;;;6226840;22;20318;-95
2022/10/03 13:48:26;;;;;;;0.73;0.20;;;16.60;99.90;;;;;;6226310;22;20341;-91
2022/10/03 13:51:38;;;;;;;0.88;0.15;;;16.60;99.90;;;;;;6227588;22;20396;-93
2022/10/03 13:54:46;;;;;;;0.47;0.17;;;16.60;99.90;;;;;;6199318;22;20024;-92
2022/10/03 13:57:38;;;;;;;2.40;0.20;;;16.60;99.90;;;;;;6143030;22;20021;-93
2022/10/03 14:00:35;;;;;;;2.05;0.40;;;16.60;99.90;;;;;;6231916;22;20027;-91
2022/10/03 14:03:19;;;;;;;1.17;0.20;;;16.60;99.90;;;;;;6222961;22;20016;-90
2022/10/03 14:06:21;;;;;;;3.40;0.22;;;16.60;99.90;;;;;;6224586;22;20030;-94
2022/10/03 14:09:24;;;;;;;2.55;0.30;;;16.60;99.90;;;;;;6206081;22;20016;-91
2022/10/03 14:12:02;;;;;;;1.70;0.22;;;16.50;99.90;;;;;;6250335;22;20655;-91
2022/10/03 14:14:39;;;;;;;1.85;0.38;;;16.50;99.90;;;;;;6225683;22;20449;-90
2022/10/03 14:17:56;;;;;;;;;;;;;;;;;;;;;
2022/10/03 14:21:20;;;;;;;;;;;;;;;;;;;;;
2022/10/03 14:26:46;;;;;;;0.50;0.10;;;16.30;99.90;;;;;;6277476;22;20020;-91
2022/10/03 14:29:18;;;;;;;1.55;0.28;;;16.30;99.90;;;;;;6231351;22;20361;-93
2022/10/03 14:32:02;;;;;;;0.60;0.20;;;16.30;99.90;;;;;;6256735;22;20050;-94
2022/10/03 14:35:14;;;;;;;3.85;0.22;;;16.20;99.90;;;;;;6256517;22;20015;-92
2022/10/03 14:38:16;;;;;;;1.23;0.20;;;16.20;99.90;;;;;;6243546;22;20102;-93
2022/10/03 14:40:48;;;;;;;1.00;0.20;;;16.20;99.90;;;;;;6253345;22;20058;-90
2022/10/03 14:43:26;;;;;;;2.72;0.40;;;16.20;99.90;;;;;;6256360;22;20506;-91
2022/10/03 14:45:58;;;;;;;1.80;0.10;;;16.20;99.90;;;;;;6256647;22;20016;-94
2022/10/03 14:48:33;;;;;;;2.17;0.20;;;16.10;99.90;;;;;;6256391;22;20479;-90
2022/10/03 14:51:11;;;;;;;2.17;0.20;;;16.10;99.90;;;;;;6254741;22;20379;-92
2022/10/03 14:53:38;;;;;;;0.60;0.17;;;16.20;99.90;;;;;;6256567;22;20050;-89
2022/10/03 14:56:29;;;;;;;0.77;0.20;;;16.10;99.90;;;;;;6256504;22;20081;-90
2022/10/03 14:59:22;;;;;;;;;;;;;;;;;;;;;
2022/10/03 15:01:55;;;;;;;1.40;0.20;;;16.10;99.90;;;;;;6281905;22;20515;-89
2022/10/03 15:04:35;;;;;;;0.88;0.10;;;16.10;99.90;;;;;;6282255;22;20054;-89
2022/10/03 15:07:06;;;;;;;2.63;0.40;;;16.10;99.90;;;;;;6256532;22;20392;-89
2022/10/03 15:09:59;;;;;;;;;;;;;;;;;;;;;
2022/10/03 15:12:30;;;;;;;1.88;0.20;;;16.10;99.90;;;;;;6258712;22;20047;-92
2022/10/03 15:15:01;;;;;;;2.33;0.63;;;16.10;99.90;;;;;;6281809;22;20510;-93
2022/10/03 15:17:30;;;;;;;1.02;0.30;;;16.10;99.90;;;;;;6256799;22;20034;-91
2022/10/03 15:20:04;;;;;;;1.40;0.20;;;16.10;99.90;;;;;;6282497;22;20015;-90
2022/10/03 15:22:56;;;;;;;3.13;0.30;;;16.10;99.90;;;;;;6256283;22;20011;-90
2022/10/03 15:25:39;;;;;;;1.80;0.25;;;16.10;99.90;;;;;;6253818;22;20030;-91
2022/10/03 15:28:13;;;;;;;2.08;0.38;;;16.10;99.90;;;;;;6262182;22;20059;-87
2022/10/03 15:30:40;;;;;;;1.27;0.10;;;16.10;99.90;;;;;;6263476;22;20058;-89
2022/10/03 15:33:31;;;;;;;1.83;0.28;;;16.10;99.90;;;;;;6256503;22;20053;-94
2022/10/03 15:36:23;;;;;;;2.47;0.15;;;16.10;99.90;;;;;;6282010;22;20023;-91
2022/10/03 15:38:59;;;;;;;1.40;0.15;;;16.00;99.90;;;;;;6254058;22;20030;-92
2022/10/03 15:41:53;;;;;;;1.33;0.30;;;16.00;99.90;;;;;;6255059;22;20077;-93
2022/10/03 15:44:46;;;;;;;1.33;0.40;;;16.00;99.90;;;;;;6255933;22;20368;-92
2022/10/03 15:47:13;;;;;;;5.47;0.40;;;16.00;99.90;;;;;;6254892;22;20019;-91
2022/10/03 15:49:52;;;;;;;1.17;0.40;;;15.90;99.90;;;;;;6256274;22;20015;-92
2022/10/03 15:55:31;;;;;;;1.02;0.22;;;15.90;99.90;;;;;;6276315;22;20028;-93
2022/10/03 16:30:10;;;;;;;1.52;0.75;;;15.60;99.90;;;;;;6259080;22;20028;-90
2022/10/03 17:04:09;;;;;;;3.50;1.10;;;15.00;99.90;;;;;;6274095;22;20027;-92
2022/10/03 19:04:36;;;;;;;1.92;0.63;;;13.30;99.90;;;;;;6222731;22;1222650;-92
2022/10/03 19:07:28;;;;;;;3.05;0.80;;;13.30;99.90;;;;;;6226525;22;20031;-91
2022/10/03 19:10:10;;;;;;;2.95;0.88;;;13.20;99.90;;;;;;6226346;22;20012;-91
2022/10/03 19:12:39;;;;;;;2.72;0.93;;;13.20;99.90;;;;;;6226378;22;20051;-91
2022/10/03 19:15:11;;;;;;;2.08;0.85;;;13.20;99.90;;;;;;6226206;22;20008;-93
2022/10/03 19:18:32;;;;;;;3.15;0.80;;;13.10;99.90;;;;;;6226130;22;20074;-91
2022/10/03 19:21:03;;;;;;;2.33;0.63;;;13.10;99.90;;;;;;6226124;22;20026;-92
2022/10/03 19:23:38;;;;;;;2.03;0.68;;;13.10;99.90;;;;;;6225659;22;20023;-94
2022/10/03 19:26:54;;;;;;;2.97;0.70;;;13.10;99.90;;;;;;6225995;22;20085;-92
2022/10/03 19:29:36;;;;;;;3.78;1.35;;;13.10;99.90;;;;;;6173297;22;20021;-92
2022/10/03 19:32:22;;;;;;;3.22;0.85;;;13.00;99.90;;;;;;6256753;22;20022;-92
2022/10/03 19:35:19;;;;;;;2.17;0.88;;;13.00;99.90;;;;;;6282431;22;20586;-92
2022/10/03 19:37:51;;;;;;;1.25;0.65;;;12.90;99.90;;;;;;6239564;22;20011;-90
2022/10/03 19:40:37;;;;;;;3.58;0.85;;;12.90;99.90;;;;;;6256398;22;20023;-92
2022/10/03 19:43:35;;;;;;;1.98;0.77;;;12.80;99.90;;;;;;6254518;22;20016;-94
2022/10/03 19:46:26;;;;;;;;;;;;;;;;;;;;;
2022/10/03 19:49:08;;;;;;;3.00;0.80;;;12.80;99.90;;;;;;6279420;22;20102;-91
2022/10/03 19:51:34;;;;;;;2.67;1.00;;;12.80;99.90;;;;;;6254461;22;20344;-92
2022/10/03 19:54:02;;;;;;;4.03;1.10;;;12.70;99.90;;;;;;6255385;22;20016;-91
2022/10/03 19:56:54;;;;;;;4.25;1.17;;;12.70;99.90;;;;;;6255949;22;20015;-94
2022/10/03 20:00:07;;;;;;;1.73;0.73;;;12.70;99.90;;;;;;6251123;22;20020;-90
2022/10/03 20:03:25;;;;;;;;;;;;;;;;;;;;;
2022/10/03 20:06:09;;;;;;;2.83;0.90;;;12.60;99.90;;;;;;6259958;22;20015;-93
2022/10/03 20:09:03;;;;;;;1.90;1.00;;;12.60;99.90;;;;;;6255595;22;20065;-92
2022/10/03 20:11:51;;;;;;;2.03;1.00;;;12.70;99.90;;;;;;6282589;22;20016;-93
2022/10/03 20:14:25;;;;;;;3.00;1.15;;;12.70;99.90;;;;;;6274468;22;20055;-91
2022/10/03 20:17:08;;;;;;;3.70;1.60;;;12.70;99.90;;;;;;6256589;22;20027;-92
2022/10/03 20:19:53;;;;;;;4.07;1.40;;;12.70;99.90;;;;;;6256206;22;20015;-91
2022/10/03 20:22:24;;;;;;;3.22;1.10;;;12.70;99.90;;;;;;6281159;22;20011;-93
2022/10/03 20:24:55;;;;;;;3.65;1.20;;;12.70;99.90;;;;;;6256013;22;20441;-92
2022/10/03 20:27:49;;;;;;;3.75;1.30;;;12.60;99.90;;;;;;6256419;22;20019;-92
2022/10/03 20:33:43;;;;;;;1.55;0.90;;;12.60;99.90;;;;;;6308403;22;20073;-94
2022/10/03 21:05:34;;;;;;;2.33;1.10;;;12.70;99.90;;;;;;6239006;22;20089;-91
2022/10/03 21:08:43;;;;;;;3.80;1.17;;;12.70;99.90;;;;;;6254974;22;20511;-95
2022/10/03 21:11:09;;;;;;;2.88;1.10;;;12.70;99.90;;;;;;6223281;22;20094;-96
2022/10/03 21:14:43;;;;;;;;;;;;;;;;;;;;;
2022/10/03 21:17:29;;;;;;;3.28;1.20;;;12.60;99.90;;;;;;6120746;22;20347;-90
2022/10/03 21:20:05;;;;;;;3.72;1.10;;;12.70;99.90;;;;;;6254793;22;20019;-94
2022/10/03 21:22:33;;;;;;;5.28;1.17;;;12.70;99.90;;;;;;6255236;22;20011;-95
2022/10/03 21:25:20;;;;;;;3.53;1.20;;;12.80;99.90;;;;;;6255571;22;20097;-95
2022/10/03 21:27:52;;;;;;;;;;;12.80;99.90;;;;;;6254801;22;20026;-96
2022/10/03 21:34:05;;;;;;;3.75;1.05;;;12.90;99.90;;;;;;6247830;22;20039;-95
2022/10/03 21:37:04;;;;;;;6.72;1.40;;;12.90;99.90;;;;;;6255163;22;20069;-96
2022/10/03 21:40:19;;;;;;;;;;;12.90;99.90;;;;;;6129637;23;20018;-96
2022/10/03 21:42:52;;;;;;;2.40;1.05;;;13.00;99.90;;;;;;6128790;23;19924;-94
2022/10/03 21:46:31;;;;;;;2.92;1.35;;;13.00;99.90;;;;;;6252928;22;20015;-94
2022/10/03 21:50:17;;;;;;;3.28;1.08;;;13.00;99.90;;;;;;6191628;22;20098;-96
2022/10/03 21:56:44;;;;;;;2.88;1.00;;;13.00;99.90;;;;;;6294274;22;20015;-95
2022/10/03 21:59:54;;;;;;;3.05;1.27;;;13.00;99.90;;;;;;6254679;22;20018;-96
2022/10/03 22:06:08;;;;;;;3.15;1.25;;;13.00;99.90;;;;;;6308323;22;20104;-96
2022/10/03 22:08:42;;;;;;;2.22;1.10;;;13.00;99.90;;;;;;6255465;22;20080;-95
2022/10/03 22:23:38;;;;;;;4.30;1.30;;;12.90;99.90;;;;;;5923751;24;20025;-93
2022/10/03 22:29:24;;;;;;;3.72;1.52;;;12.90;99.90;;;;;;6262760;22;20050;-93
2022/10/03 22:36:22;;;;;;;3.97;1.65;;;12.90;99.90;;;;;;6263506;22;20445;-92
2022/10/03 22:38:50;;;;;;;9.00;1.58;;;12.90;99.90;;;;;;6216610;22;20015;-92
2022/10/03 22:41:29;;;;;;;3.95;1.67;;;12.90;99.90;;;;;;6226562;22;20023;-92
2022/10/03 22:44:10;;;;;;;4.20;1.80;;;12.90;99.90;;;;;;6226093;22;20020;-94
2022/10/03 22:46:40;;;;;;;4.68;1.73;;;12.90;99.90;;;;;;6226785;22;20338;-93
2022/10/03 22:49:19;;;;;;;3.53;1.40;;;12.90;99.90;;;;;;6226753;22;20074;-93
2022/10/03 23:10:05;;;;;;;4.43;1.83;;;12.70;99.90;;;;;;6277989;22;20020;-90
2022/10/03 23:12:40;;;;;;;5.55;1.65;;;12.70;99.90;;;;;;6251439;22;20016;-90
2022/10/03 23:15:08;;;;;;;3.42;1.55;;;12.70;99.90;;;;;;6226251;22;20047;-90
2022/10/03 23:17:37;;;;;;;6.13;2.13;;;12.70;99.90;;;;;;6226069;22;20027;-90
2022/10/03 23:20:27;;;;;;;3.50;1.60;;;12.70;99.90;;;;;;6225920;22;20398;-90
2022/10/03 23:23:14;;;;;;;4.28;1.80;;;12.70;99.90;;;;;;6227110;22;20016;-90
2022/10/03 23:26:11;;;;;;;4.20;1.80;;;12.70;99.90;;;;;;6226023;22;20016;-91
2022/10/03 23:29:02;;;;;;;4.43;1.60;;;12.70;99.90;;;;;;6207848;22;20463;-91
2022/10/03 23:31:50;;;;;;;6.38;1.70;;;12.70;99.90;;;;;;6225542;22;20441;-91
2022/10/03 23:34:34;;;;;;;6.35;1.80;;;12.70;99.90;;;;;;6225864;22;20023;-91
2022/10/03 23:37:45;;;;;;;5.63;1.73;;;12.70;99.90;;;;;;6225942;22;20023;-91
2022/10/03 23:40:22;;;;;;;4.28;1.77;;;12.70;99.90;;;;;;6219934;22;20016;-91
2022/10/03 23:43:36;;;;;;;3.88;1.85;;;12.70;99.90;;;;;;6224848;22;20015;-91
2022/10/03 23:46:26;;;;;;;5.97;2.00;;;12.70;99.90;;;;;;6130482;23;20426;-91
2022/10/03 23:49:00;;;;;;;5.45;2.20;;;12.70;99.90;;;;;;6129666;23;20068;-92
2022/10/03 23:51:31;;;;;;;5.82;1.92;;;12.70;99.90;;;;;;6213270;22;20459;-92
2022/10/03 23:54:02;;;;;;;6.97;2.13;;;12.70;99.90;;;;;;6225990;22;20016;-92
2022/10/03 23:56:33;;;;;;;5.97;2.28;;;12.70;99.90;;;;;;6226730;22;20344;-92
2022/10/03 23:59:02;;;;;;;4.35;2.13;;;12.60;99.90;;;;;;6246612;22;20019;-92
